sensor_id;sensor_type;location;lat;lon;timestamp;temperature;humidity
29295;DHT22;16305;48.566;8.846;2022-09-01T00:01:41;13.60;99.90
29295;DHT22;16305;48.566;8.846;2022-09-01T00:04:10;13.70;99.90
29295;DHT22;16305;48.566;8.846;2022-09-01T00:06:37;13.70;99.90
29295;DHT22;16305;48.566;8.846;2022-09-01T00:09:06;13.90;99.90
29295;DHT22;16305;48.566;8.846;2022-09-01T00:11:33;13.90;99.90
29295;DHT22;16305;48.566;8.846;2022-09-01T00:14:00;13.90;99.90
29295;DHT22;16305;48.566;8.846;2022-09-01T00:16:26;13.80;99.90
29295;DHT22;16305;48.566;8.846;2022-09-01T00:18:53;13.90;99.90
29295;DHT22;16305;48.566;8.846;2022-09-01T00:21:22;14.10;99.90
29295;DHT22;16305;48.566;8.846;2022-09-01T00:23:48;14.20;99.90
29295;DHT22;16305;48.566;8.846;2022-09-01T00:26:13;14.10;99.90
29295;DHT22;16305;48.566;8.846;2022-09-01T00:28:39;14.20;99.90
29295;DHT22;16305;48.566;8.846;2022-09-01T00:31:07;14.40;99.90
29295;DHT22;16305;48.566;8.846;2022-09-01T00:33:34;14.30;99.90
29295;DHT22;16305;48.566;8.846;2022-09-01T00:35:59;14.40;99.90
29295;DHT22;16305;48.566;8.846;2022-09-01T00:38:25;14.30;99.90
29295;DHT22;16305;48.566;8.846;2022-09-01T00:40:51;14.50;99.90
29295;DHT22;16305;48.566;8.846;2022-09-01T00:43:35;14.50;99.90
29295;DHT22;16305;48.566;8.846;2022-09-01T00:46:08;14.40;99.90
29295;DHT22;16305;48.566;8.846;2022-09-01T00:48:35;14.40;99.90
29295;DHT22;16305;48.566;8.846;2022-09-01T00:51:02;14.40;99.90
29295;DHT22;16305;48.566;8.846;2022-09-01T00:53:29;14.40;99.90
29295;DHT22;16305;48.566;8.846;2022-09-01T00:55:55;14.40;99.90
29295;DHT22;16305;48.566;8.846;2022-09-01T00:58:21;14.40;99.90
29295;DHT22;16305;48.566;8.846;2022-09-01T01:00:47;14.40;99.90
29295;DHT22;16305;48.566;8.846;2022-09-01T01:03:14;14.30;99.90
29295;DHT22;16305;48.566;8.846;2022-09-01T01:05:50;14.20;99.90
29295;DHT22;16305;48.566;8.846;2022-09-01T01:08:23;14.20;99.90
29295;DHT22;16305;48.566;8.846;2022-09-01T01:11:02;14.10;99.90
29295;DHT22;16305;48.566;8.846;2022-09-01T01:13:28;14.20;99.90
29295;DHT22;16305;48.566;8.846;2022-09-01T01:15:57;13.80;99.90
29295;DHT22;16305;48.566;8.846;2022-09-01T01:18:24;13.70;99.90
29295;DHT22;16305;48.566;8.846;2022-09-01T01:20:59;13.60;99.90
29295;DHT22;16305;48.566;8.846;2022-09-01T01:26:18;13.40;99.90
29295;DHT22;16305;48.566;8.846;2022-09-01T01:28:43;13.30;99.90
29295;DHT22;16305;48.566;8.846;2022-09-01T01:31:14;13.30;99.90
29295;DHT22;16305;48.566;8.846;2022-09-01T01:33:46;13.20;99.90
29295;DHT22;16305;48.566;8.846;2022-09-01T01:36:36;13.20;99.90
29295;DHT22;16305;48.566;8.846;2022-09-01T01:39:10;13.30;99.90
29295;DHT22;16305;48.566;8.846;2022-09-01T01:41:38;13.20;99.90
29295;DHT22;16305;48.566;8.846;2022-09-01T01:44:11;13.10;99.90
29295;DHT22;16305;48.566;8.846;2022-09-01T01:46:40;13.10;99.90
29295;DHT22;16305;48.566;8.846;2022-09-01T01:49:08;13.10;99.90
29295;DHT22;16305;48.566;8.846;2022-09-01T01:51:33;13.10;99.90
29295;DHT22;16305;48.566;8.846;2022-09-01T01:54:00;13.20;99.90
29295;DHT22;16305;48.566;8.846;2022-09-01T01:56:30;13.10;99.90
29295;DHT22;16305;48.566;8.846;2022-09-01T01:58:57;13.10;99.90
29295;DHT22;16305;48.566;8.846;2022-09-01T02:01:25;13.20;99.90
29295;DHT22;16305;48.566;8.846;2022-09-01T02:03:53;13.20;99.90
29295;DHT22;16305;48.566;8.846;2022-09-01T02:06:21;13.20;99.90
29295;DHT22;16305;48.566;8.846;2022-09-01T02:08:49;13.30;99.90
29295;DHT22;16305;48.566;8.846;2022-09-01T02:11:16;13.30;99.90
29295;DHT22;16305;48.566;8.846;2022-09-01T02:13:42;13.20;99.90
29295;DHT22;16305;48.566;8.846;2022-09-01T02:16:09;13.10;99.90
29295;DHT22;16305;48.566;8.846;2022-09-01T02:18:40;13.10;99.90
29295;DHT22;16305;48.566;8.846;2022-09-01T02:21:09;13.10;99.90
29295;DHT22;16305;48.566;8.846;2022-09-01T02:23:36;13.10;99.90
29295;DHT22;16305;48.566;8.846;2022-09-01T02:26:03;13.00;99.90
29295;DHT22;16305;48.566;8.846;2022-09-01T02:28:33;13.00;99.90
29295;DHT22;16305;48.566;8.846;2022-09-01T02:31:02;12.90;99.90
29295;DHT22;16305;48.566;8.846;2022-09-01T02:33:30;13.00;99.90
29295;DHT22;16305;48.566;8.846;2022-09-01T02:36:02;13.10;99.90
29295;DHT22;16305;48.566;8.846;2022-09-01T02:38:28;13.10;99.90
29295;DHT22;16305;48.566;8.846;2022-09-01T02:40:58;13.10;99.90
29295;DHT22;16305;48.566;8.846;2022-09-01T02:43:24;13.10;99.90
29295;DHT22;16305;48.566;8.846;2022-09-01T02:45:53;13.10;99.90
29295;DHT22;16305;48.566;8.846;2022-09-01T02:48:30;13.00;99.90
29295;DHT22;16305;48.566;8.846;2022-09-01T02:50:58;13.00;99.90
29295;DHT22;16305;48.566;8.846;2022-09-01T02:53:24;13.00;99.90
29295;DHT22;16305;48.566;8.846;2022-09-01T02:55:50;13.00;99.90
29295;DHT22;16305;48.566;8.846;2022-09-01T02:58:16;13.00;99.90
29295;DHT22;16305;48.566;8.846;2022-09-01T03:00:43;13.00;99.90
29295;DHT22;16305;48.566;8.846;2022-09-01T03:03:09;12.90;99.90
29295;DHT22;16305;48.566;8.846;2022-09-01T03:05:37;13.00;99.90
29295;DHT22;16305;48.566;8.846;2022-09-01T03:08:06;13.10;99.90
29295;DHT22;16305;48.566;8.846;2022-09-01T03:10:40;13.10;99.90
29295;DHT22;16305;48.566;8.846;2022-09-01T03:13:18;13.20;99.90
29295;DHT22;16305;48.566;8.846;2022-09-01T03:15:45;13.20;99.90
29295;DHT22;16305;48.566;8.846;2022-09-01T03:18:12;13.10;99.90
29295;DHT22;16305;48.566;8.846;2022-09-01T03:20:40;13.20;99.90
29295;DHT22;16305;48.566;8.846;2022-09-01T03:23:08;13.10;99.90
29295;DHT22;16305;48.566;8.846;2022-09-01T03:25:35;13.00;99.90
29295;DHT22;16305;48.566;8.846;2022-09-01T03:28:01;12.90;99.90
29295;DHT22;16305;48.566;8.846;2022-09-01T03:30:29;12.90;99.90
29295;DHT22;16305;48.566;8.846;2022-09-01T03:32:56;12.90;99.90
29295;DHT22;16305;48.566;8.846;2022-09-01T03:35:22;12.90;99.90
29295;DHT22;16305;48.566;8.846;2022-09-01T03:37:48;12.80;99.90
29295;DHT22;16305;48.566;8.846;2022-09-01T03:40:14;12.80;99.90
29295;DHT22;16305;48.566;8.846;2022-09-01T03:42:40;12.70;99.90
29295;DHT22;16305;48.566;8.846;2022-09-01T03:45:08;12.70;99.90
29295;DHT22;16305;48.566;8.846;2022-09-01T03:47:38;12.60;99.90
29295;DHT22;16305;48.566;8.846;2022-09-01T03:50:13;12.50;99.90
29295;DHT22;16305;48.566;8.846;2022-09-01T03:52:48;12.50;99.90
29295;DHT22;16305;48.566;8.846;2022-09-01T03:55:16;12.50;99.90
29295;DHT22;16305;48.566;8.846;2022-09-01T03:57:43;12.40;99.90
29295;DHT22;16305;48.566;8.846;2022-09-01T04:00:12;12.40;99.90
29295;DHT22;16305;48.566;8.846;2022-09-01T04:02:45;12.40;99.90
29295;DHT22;16305;48.566;8.846;2022-09-01T04:05:12;12.40;99.90
29295;DHT22;16305;48.566;8.846;2022-09-01T04:07:37;12.50;99.90
29295;DHT22;16305;48.566;8.846;2022-09-01T04:10:04;12.50;99.90
29295;DHT22;16305;48.566;8.846;2022-09-01T04:12:29;12.60;99.90
29295;DHT22;16305;48.566;8.846;2022-09-01T04:14:56;12.60;99.90
29295;DHT22;16305;48.566;8.846;2022-09-01T04:17:21;12.50;99.90
29295;DHT22;16305;48.566;8.846;2022-09-01T04:20:06;12.50;99.90
29295;DHT22;16305;48.566;8.846;2022-09-01T04:22:34;12.50;99.90
29295;DHT22;16305;48.566;8.846;2022-09-01T04:25:04;12.50;99.90
29295;DHT22;16305;48.566;8.846;2022-09-01T04:27:29;12.50;99.90
29295;DHT22;16305;48.566;8.846;2022-09-01T04:29:55;12.50;99.90
29295;DHT22;16305;48.566;8.846;2022-09-01T04:32:21;12.70;99.90
29295;DHT22;16305;48.566;8.846;2022-09-01T04:34:48;12.80;99.90
29295;DHT22;16305;48.566;8.846;2022-09-01T04:37:19;12.80;99.90
29295;DHT22;16305;48.566;8.846;2022-09-01T04:39:53;12.90;99.90
29295;DHT22;16305;48.566;8.846;2022-09-01T04:42:20;13.00;99.90
29295;DHT22;16305;48.566;8.846;2022-09-01T04:44:49;13.00;99.90
29295;DHT22;16305;48.566;8.846;2022-09-01T04:47:15;12.90;99.90
29295;DHT22;16305;48.566;8.846;2022-09-01T04:49:44;12.90;99.90
29295;DHT22;16305;48.566;8.846;2022-09-01T04:52:11;12.80;99.90
29295;DHT22;16305;48.566;8.846;2022-09-01T04:54:38;12.90;99.90
29295;DHT22;16305;48.566;8.846;2022-09-01T04:57:03;13.10;99.90
29295;DHT22;16305;48.566;8.846;2022-09-01T04:59:31;13.10;99.90
29295;DHT22;16305;48.566;8.846;2022-09-01T05:01:57;13.20;99.90
29295;DHT22;16305;48.566;8.846;2022-09-01T05:04:27;13.20;99.90
29295;DHT22;16305;48.566;8.846;2022-09-01T05:06:54;13.10;99.90
29295;DHT22;16305;48.566;8.846;2022-09-01T05:09:22;13.10;99.90
29295;DHT22;16305;48.566;8.846;2022-09-01T05:11:49;13.00;99.90
29295;DHT22;16305;48.566;8.846;2022-09-01T05:14:16;13.00;99.90
29295;DHT22;16305;48.566;8.846;2022-09-01T05:16:45;13.00;99.90
29295;DHT22;16305;48.566;8.846;2022-09-01T05:19:11;12.90;99.90
29295;DHT22;16305;48.566;8.846;2022-09-01T05:21:40;12.90;99.90
29295;DHT22;16305;48.566;8.846;2022-09-01T05:24:10;13.10;99.90
29295;DHT22;16305;48.566;8.846;2022-09-01T05:26:35;13.10;99.90
29295;DHT22;16305;48.566;8.846;2022-09-01T05:29:06;13.20;99.90
29295;DHT22;16305;48.566;8.846;2022-09-01T05:31:43;13.20;99.90
29295;DHT22;16305;48.566;8.846;2022-09-01T05:34:09;13.50;99.90
29295;DHT22;16305;48.566;8.846;2022-09-01T05:36:37;13.60;99.90
29295;DHT22;16305;48.566;8.846;2022-09-01T05:39:05;13.80;99.90
29295;DHT22;16305;48.566;8.846;2022-09-01T05:41:31;13.80;99.90
29295;DHT22;16305;48.566;8.846;2022-09-01T05:44:02;13.90;99.90
29295;DHT22;16305;48.566;8.846;2022-09-01T05:46:31;13.90;99.90
29295;DHT22;16305;48.566;8.846;2022-09-01T05:48:58;13.90;99.90
29295;DHT22;16305;48.566;8.846;2022-09-01T05:51:26;14.00;99.90
29295;DHT22;16305;48.566;8.846;2022-09-01T05:53:54;14.10;99.90
29295;DHT22;16305;48.566;8.846;2022-09-01T05:56:28;14.20;99.90
29295;DHT22;16305;48.566;8.846;2022-09-01T05:58:54;14.20;99.90
29295;DHT22;16305;48.566;8.846;2022-09-01T06:01:22;14.20;99.90
29295;DHT22;16305;48.566;8.846;2022-09-01T06:03:53;14.20;99.90
29295;DHT22;16305;48.566;8.846;2022-09-01T06:06:23;14.30;99.90
29295;DHT22;16305;48.566;8.846;2022-09-01T06:08:50;14.40;99.90
29295;DHT22;16305;48.566;8.846;2022-09-01T06:11:16;14.50;99.90
29295;DHT22;16305;48.566;8.846;2022-09-01T06:13:43;14.50;99.90
29295;DHT22;16305;48.566;8.846;2022-09-01T06:16:14;14.60;99.90
29295;DHT22;16305;48.566;8.846;2022-09-01T06:18:41;14.70;99.90
29295;DHT22;16305;48.566;8.846;2022-09-01T06:21:10;14.60;99.90
29295;DHT22;16305;48.566;8.846;2022-09-01T06:23:40;14.70;99.90
29295;DHT22;16305;48.566;8.846;2022-09-01T06:26:14;14.80;99.90
29295;DHT22;16305;48.566;8.846;2022-09-01T06:28:41;14.90;99.90
29295;DHT22;16305;48.566;8.846;2022-09-01T06:31:07;14.90;99.90
29295;DHT22;16305;48.566;8.846;2022-09-01T06:33:33;15.00;99.90
29295;DHT22;16305;48.566;8.846;2022-09-01T06:36:01;15.10;99.90
29295;DHT22;16305;48.566;8.846;2022-09-01T06:38:28;15.20;99.90
29295;DHT22;16305;48.566;8.846;2022-09-01T06:41:02;15.20;99.90
29295;DHT22;16305;48.566;8.846;2022-09-01T06:43:29;15.30;99.90
29295;DHT22;16305;48.566;8.846;2022-09-01T06:45:55;15.30;99.90
29295;DHT22;16305;48.566;8.846;2022-09-01T06:48:21;15.40;99.90
29295;DHT22;16305;48.566;8.846;2022-09-01T06:50:48;15.50;99.90
29295;DHT22;16305;48.566;8.846;2022-09-01T06:53:14;15.50;99.90
29295;DHT22;16305;48.566;8.846;2022-09-01T06:55:43;15.50;99.90
29295;DHT22;16305;48.566;8.846;2022-09-01T06:58:13;15.60;99.90
29295;DHT22;16305;48.566;8.846;2022-09-01T07:00:41;15.60;99.90
29295;DHT22;16305;48.566;8.846;2022-09-01T07:03:16;15.60;99.90
29295;DHT22;16305;48.566;8.846;2022-09-01T07:05:45;15.70;99.90
29295;DHT22;16305;48.566;8.846;2022-09-01T07:08:13;15.70;99.90
29295;DHT22;16305;48.566;8.846;2022-09-01T07:10:50;15.70;99.90
29295;DHT22;16305;48.566;8.846;2022-09-01T07:13:20;15.60;99.90
29295;DHT22;16305;48.566;8.846;2022-09-01T07:15:52;15.70;99.90
29295;DHT22;16305;48.566;8.846;2022-09-01T07:18:25;15.80;99.90
29295;DHT22;16305;48.566;8.846;2022-09-01T07:20:52;15.70;99.90
29295;DHT22;16305;48.566;8.846;2022-09-01T07:23:19;15.90;99.90
29295;DHT22;16305;48.566;8.846;2022-09-01T07:25:47;16.00;99.90
29295;DHT22;16305;48.566;8.846;2022-09-01T07:28:14;16.10;99.90
29295;DHT22;16305;48.566;8.846;2022-09-01T07:30:43;16.20;99.90
29295;DHT22;16305;48.566;8.846;2022-09-01T07:33:10;16.30;99.90
29295;DHT22;16305;48.566;8.846;2022-09-01T07:35:38;16.40;99.90
29295;DHT22;16305;48.566;8.846;2022-09-01T07:38:04;16.40;99.90
29295;DHT22;16305;48.566;8.846;2022-09-01T07:40:35;16.40;99.90
29295;DHT22;16305;48.566;8.846;2022-09-01T07:43:07;16.60;99.90
29295;DHT22;16305;48.566;8.846;2022-09-01T07:45:35;16.60;99.90
29295;DHT22;16305;48.566;8.846;2022-09-01T07:48:04;16.70;99.90
29295;DHT22;16305;48.566;8.846;2022-09-01T07:50:31;16.60;99.90
29295;DHT22;16305;48.566;8.846;2022-09-01T07:52:57;16.50;99.90
29295;DHT22;16305;48.566;8.846;2022-09-01T07:55:22;16.60;99.90
29295;DHT22;16305;48.566;8.846;2022-09-01T07:57:48;16.70;99.90
29295;DHT22;16305;48.566;8.846;2022-09-01T08:00:14;16.80;99.90
29295;DHT22;16305;48.566;8.846;2022-09-01T08:02:41;16.90;99.90
29295;DHT22;16305;48.566;8.846;2022-09-01T08:05:12;16.90;99.90
29295;DHT22;16305;48.566;8.846;2022-09-01T08:07:38;16.80;99.90
29295;DHT22;16305;48.566;8.846;2022-09-01T08:10:06;16.80;99.90
29295;DHT22;16305;48.566;8.846;2022-09-01T08:12:32;16.90;99.90
29295;DHT22;16305;48.566;8.846;2022-09-01T08:15:00;16.90;99.90
29295;DHT22;16305;48.566;8.846;2022-09-01T08:17:25;17.00;99.90
29295;DHT22;16305;48.566;8.846;2022-09-01T08:19:51;17.20;99.90
29295;DHT22;16305;48.566;8.846;2022-09-01T08:22:18;17.20;99.90
29295;DHT22;16305;48.566;8.846;2022-09-01T08:24:47;17.30;99.90
29295;DHT22;16305;48.566;8.846;2022-09-01T08:27:13;17.40;99.90
29295;DHT22;16305;48.566;8.846;2022-09-01T08:29:38;17.40;99.90
29295;DHT22;16305;48.566;8.846;2022-09-01T08:32:04;17.50;99.90
29295;DHT22;16305;48.566;8.846;2022-09-01T08:34:31;17.70;99.90
29295;DHT22;16305;48.566;8.846;2022-09-01T08:36:57;17.80;99.90
29295;DHT22;16305;48.566;8.846;2022-09-01T08:39:23;17.70;99.90
29295;DHT22;16305;48.566;8.846;2022-09-01T08:44:56;17.80;99.90
29295;DHT22;16305;48.566;8.846;2022-09-01T08:47:24;18.00;99.90
29295;DHT22;16305;48.566;8.846;2022-09-01T08:49:49;18.00;99.90
29295;DHT22;16305;48.566;8.846;2022-09-01T08:55:27;18.10;99.90
29295;DHT22;16305;48.566;8.846;2022-09-01T08:57:58;18.40;99.90
29295;DHT22;16305;48.566;8.846;2022-09-01T09:00:27;18.60;99.90
29295;DHT22;16305;48.566;8.846;2022-09-01T09:06:16;18.70;99.90
29295;DHT22;16305;48.566;8.846;2022-09-01T09:11:26;18.90;99.90
29295;DHT22;16305;48.566;8.846;2022-09-01T09:14:00;18.90;99.90
29295;DHT22;16305;48.566;8.846;2022-09-01T09:16:32;18.90;99.90
29295;DHT22;16305;48.566;8.846;2022-09-01T09:19:03;18.90;99.90
29295;DHT22;16305;48.566;8.846;2022-09-01T09:21:43;18.90;99.90
29295;DHT22;16305;48.566;8.846;2022-09-01T09:29:56;19.30;99.90
29295;DHT22;16305;48.566;8.846;2022-09-01T09:32:24;19.40;99.90
29295;DHT22;16305;48.566;8.846;2022-09-01T09:35:31;19.60;99.90
29295;DHT22;16305;48.566;8.846;2022-09-01T09:38:21;19.50;99.90
29295;DHT22;16305;48.566;8.846;2022-09-01T09:41:07;19.30;99.90
29295;DHT22;16305;48.566;8.846;2022-09-01T09:43:36;19.40;99.90
29295;DHT22;16305;48.566;8.846;2022-09-01T09:49:14;19.70;99.90
29295;DHT22;16305;48.566;8.846;2022-09-01T09:51:42;19.90;99.90
29295;DHT22;16305;48.566;8.846;2022-09-01T09:54:14;20.20;99.90
29295;DHT22;16305;48.566;8.846;2022-09-01T09:56:41;20.30;99.90
29295;DHT22;16305;48.566;8.846;2022-09-01T09:59:26;20.40;99.90
29295;DHT22;16305;48.566;8.846;2022-09-01T10:01:59;20.30;99.90
29295;DHT22;16305;48.566;8.846;2022-09-01T10:04:38;20.20;99.90
29295;DHT22;16305;48.566;8.846;2022-09-01T10:07:26;20.30;99.90
29295;DHT22;16305;48.566;8.846;2022-09-01T10:09:54;20.40;99.90
29295;DHT22;16305;48.566;8.846;2022-09-01T10:12:21;20.60;99.90
29295;DHT22;16305;48.566;8.846;2022-09-01T10:14:52;20.70;99.90
29295;DHT22;16305;48.566;8.846;2022-09-01T10:17:31;20.80;99.90
29295;DHT22;16305;48.566;8.846;2022-09-01T10:20:02;20.90;99.90
29295;DHT22;16305;48.566;8.846;2022-09-01T10:22:32;21.10;99.90
29295;DHT22;16305;48.566;8.846;2022-09-01T10:24:59;21.20;99.90
29295;DHT22;16305;48.566;8.846;2022-09-01T10:27:29;21.10;99.90
29295;DHT22;16305;48.566;8.846;2022-09-01T10:30:06;21.10;99.90
29295;DHT22;16305;48.566;8.846;2022-09-01T10:32:53;21.20;99.90
29295;DHT22;16305;48.566;8.846;2022-09-01T10:35:21;21.30;99.90
29295;DHT22;16305;48.566;8.846;2022-09-01T10:37:49;21.20;99.90
29295;DHT22;16305;48.566;8.846;2022-09-01T10:40:18;21.10;99.90
29295;DHT22;16305;48.566;8.846;2022-09-01T10:42:46;21.10;99.90
29295;DHT22;16305;48.566;8.846;2022-09-01T10:45:32;21.10;99.90
29295;DHT22;16305;48.566;8.846;2022-09-01T10:50:55;20.90;99.90
29295;DHT22;16305;48.566;8.846;2022-09-01T10:53:41;20.70;99.90
29295;DHT22;16305;48.566;8.846;2022-09-01T10:56:17;20.80;99.90
29295;DHT22;16305;48.566;8.846;2022-09-01T11:04:15;21.00;99.90
29295;DHT22;16305;48.566;8.846;2022-09-01T11:09:21;20.90;99.90
29295;DHT22;16305;48.566;8.846;2022-09-01T11:12:20;21.00;99.90
29295;DHT22;16305;48.566;8.846;2022-09-01T11:14:58;21.00;99.90
29295;DHT22;16305;48.566;8.846;2022-09-01T11:22:26;21.50;99.90
29295;DHT22;16305;48.566;8.846;2022-09-01T11:30:23;21.30;99.90
29295;DHT22;16305;48.566;8.846;2022-09-01T11:35:36;21.10;99.90
29295;DHT22;16305;48.566;8.846;2022-09-01T11:38:05;21.10;99.90
29295;DHT22;16305;48.566;8.846;2022-09-01T11:40:34;21.40;99.90
29295;DHT22;16305;48.566;8.846;2022-09-01T11:43:14;21.80;99.90
29295;DHT22;16305;48.566;8.846;2022-09-01T11:45:54;21.90;99.90
29295;DHT22;16305;48.566;8.846;2022-09-01T11:48:22;22.00;99.90
29295;DHT22;16305;48.566;8.846;2022-09-01T11:50:59;22.00;99.90
29295;DHT22;16305;48.566;8.846;2022-09-01T11:53:26;21.90;99.90
29295;DHT22;16305;48.566;8.846;2022-09-01T11:55:54;21.80;99.90
29295;DHT22;16305;48.566;8.846;2022-09-01T12:01:11;22.00;99.90
29295;DHT22;16305;48.566;8.846;2022-09-01T12:03:37;22.20;99.90
29295;DHT22;16305;48.566;8.846;2022-09-01T12:06:07;22.40;99.90
29295;DHT22;16305;48.566;8.846;2022-09-01T12:08:38;22.40;99.90
29295;DHT22;16305;48.566;8.846;2022-09-01T12:11:19;22.50;99.90
29295;DHT22;16305;48.566;8.846;2022-09-01T12:14:02;22.70;99.90
29295;DHT22;16305;48.566;8.846;2022-09-01T12:16:29;22.50;99.90
29295;DHT22;16305;48.566;8.846;2022-09-01T12:18:57;22.60;99.90
29295;DHT22;16305;48.566;8.846;2022-09-01T12:21:30;22.70;99.90
29295;DHT22;16305;48.566;8.846;2022-09-01T12:24:11;22.70;99.90
29295;DHT22;16305;48.566;8.846;2022-09-01T12:26:38;22.90;99.90
29295;DHT22;16305;48.566;8.846;2022-09-01T12:29:04;23.00;99.90
29295;DHT22;16305;48.566;8.846;2022-09-01T12:31:32;23.30;99.90
29295;DHT22;16305;48.566;8.846;2022-09-01T12:33:57;23.60;99.90
29295;DHT22;16305;48.566;8.846;2022-09-01T12:36:35;23.70;99.90
29295;DHT22;16305;48.566;8.846;2022-09-01T12:39:23;24.00;99.90
29295;DHT22;16305;48.566;8.846;2022-09-01T12:42:22;24.20;99.90
29295;DHT22;16305;48.566;8.846;2022-09-01T12:45:04;24.50;99.90
29295;DHT22;16305;48.566;8.846;2022-09-01T12:50:46;25.10;99.90
29295;DHT22;16305;48.566;8.846;2022-09-01T12:52:52;25.20;99.90
29295;DHT22;16305;48.566;8.846;2022-09-01T12:55:26;24.90;99.90
29295;DHT22;16305;48.566;8.846;2022-09-01T12:57:55;25.20;99.90
29295;DHT22;16305;48.566;8.846;2022-09-01T13:00:26;25.40;99.90
29295;DHT22;16305;48.566;8.846;2022-09-01T13:05:34;25.50;99.90
29295;DHT22;16305;48.566;8.846;2022-09-01T13:08:03;25.50;99.90
29295;DHT22;16305;48.566;8.846;2022-09-01T13:10:35;25.70;99.90
29295;DHT22;16305;48.566;8.846;2022-09-01T13:13:03;25.80;99.90
29295;DHT22;16305;48.566;8.846;2022-09-01T13:15:29;25.70;99.90
29295;DHT22;16305;48.566;8.846;2022-09-01T13:17:55;25.60;99.90
29295;DHT22;16305;48.566;8.846;2022-09-01T13:20:21;25.30;99.90
29295;DHT22;16305;48.566;8.846;2022-09-01T13:22:47;25.00;99.90
29295;DHT22;16305;48.566;8.846;2022-09-01T13:25:15;24.90;99.90
29295;DHT22;16305;48.566;8.846;2022-09-01T13:27:42;25.40;99.90
29295;DHT22;16305;48.566;8.846;2022-09-01T13:30:17;26.00;99.90
29295;DHT22;16305;48.566;8.846;2022-09-01T13:32:44;26.40;99.90
29295;DHT22;16305;48.566;8.846;2022-09-01T13:35:11;26.80;99.90
29295;DHT22;16305;48.566;8.846;2022-09-01T13:37:37;27.00;99.90
29295;DHT22;16305;48.566;8.846;2022-09-01T13:40:04;26.70;99.90
29295;DHT22;16305;48.566;8.846;2022-09-01T13:42:32;26.80;99.90
29295;DHT22;16305;48.566;8.846;2022-09-01T13:44:58;26.50;99.90
29295;DHT22;16305;48.566;8.846;2022-09-01T13:47:23;25.40;99.90
29295;DHT22;16305;48.566;8.846;2022-09-01T13:49:49;25.40;99.90
29295;DHT22;16305;48.566;8.846;2022-09-01T13:52:14;25.90;99.90
29295;DHT22;16305;48.566;8.846;2022-09-01T13:54:40;26.30;99.90
29295;DHT22;16305;48.566;8.846;2022-09-01T13:57:08;26.50;99.90
29295;DHT22;16305;48.566;8.846;2022-09-01T13:59:34;27.40;99.90
29295;DHT22;16305;48.566;8.846;2022-09-01T14:01:59;27.70;99.90
29295;DHT22;16305;48.566;8.846;2022-09-01T14:04:25;28.20;99.90
29295;DHT22;16305;48.566;8.846;2022-09-01T14:06:51;28.50;99.90
29295;DHT22;16305;48.566;8.846;2022-09-01T14:09:18;28.50;99.90
29295;DHT22;16305;48.566;8.846;2022-09-01T14:11:43;28.60;99.90
29295;DHT22;16305;48.566;8.846;2022-09-01T14:14:09;29.00;99.90
29295;DHT22;16305;48.566;8.846;2022-09-01T14:16:34;28.80;99.90
29295;DHT22;16305;48.566;8.846;2022-09-01T14:19:00;27.70;99.90
29295;DHT22;16305;48.566;8.846;2022-09-01T14:21:25;27.20;99.90
29295;DHT22;16305;48.566;8.846;2022-09-01T14:23:52;27.50;99.90
29295;DHT22;16305;48.566;8.846;2022-09-01T14:26:17;27.90;99.90
29295;DHT22;16305;48.566;8.846;2022-09-01T14:28:44;27.80;99.90
29295;DHT22;16305;48.566;8.846;2022-09-01T14:31:16;27.20;99.90
29295;DHT22;16305;48.566;8.846;2022-09-01T14:33:43;26.30;99.90
29295;DHT22;16305;48.566;8.846;2022-09-01T14:36:19;25.70;99.90
29295;DHT22;16305;48.566;8.846;2022-09-01T14:38:46;25.40;99.90
29295;DHT22;16305;48.566;8.846;2022-09-01T14:41:14;25.70;99.90
29295;DHT22;16305;48.566;8.846;2022-09-01T14:43:40;26.40;99.90
29295;DHT22;16305;48.566;8.846;2022-09-01T14:46:08;27.30;99.90
29295;DHT22;16305;48.566;8.846;2022-09-01T14:48:37;28.00;99.90
29295;DHT22;16305;48.566;8.846;2022-09-01T14:51:04;28.00;99.90
29295;DHT22;16305;48.566;8.846;2022-09-01T14:53:30;27.40;99.90
29295;DHT22;16305;48.566;8.846;2022-09-01T14:55:57;27.70;99.90
29295;DHT22;16305;48.566;8.846;2022-09-01T14:58:23;28.50;99.90
29295;DHT22;16305;48.566;8.846;2022-09-01T15:00:50;29.20;99.90
29295;DHT22;16305;48.566;8.846;2022-09-01T15:03:15;29.40;99.90
29295;DHT22;16305;48.566;8.846;2022-09-01T15:05:41;29.00;99.90
29295;DHT22;16305;48.566;8.846;2022-09-01T15:08:08;28.10;99.90
29295;DHT22;16305;48.566;8.846;2022-09-01T15:10:35;27.40;99.90
29295;DHT22;16305;48.566;8.846;2022-09-01T15:13:00;26.70;99.90
29295;DHT22;16305;48.566;8.846;2022-09-01T15:15:29;26.20;99.90
29295;DHT22;16305;48.566;8.846;2022-09-01T15:17:55;25.70;99.90
29295;DHT22;16305;48.566;8.846;2022-09-01T15:20:22;25.40;99.90
29295;DHT22;16305;48.566;8.846;2022-09-01T15:23:06;25.70;99.90
29295;DHT22;16305;48.566;8.846;2022-09-01T15:25:32;25.60;99.90
29295;DHT22;16305;48.566;8.846;2022-09-01T15:27:58;25.20;99.90
29295;DHT22;16305;48.566;8.846;2022-09-01T15:30:24;24.90;99.90
29295;DHT22;16305;48.566;8.846;2022-09-01T15:32:51;24.80;99.90
29295;DHT22;16305;48.566;8.846;2022-09-01T15:35:19;25.30;99.90
29295;DHT22;16305;48.566;8.846;2022-09-01T15:37:47;25.60;99.90
29295;DHT22;16305;48.566;8.846;2022-09-01T15:40:13;25.10;99.90
29295;DHT22;16305;48.566;8.846;2022-09-01T15:42:39;24.60;99.90
29295;DHT22;16305;48.566;8.846;2022-09-01T15:45:08;24.40;99.90
29295;DHT22;16305;48.566;8.846;2022-09-01T15:47:34;25.00;99.90
29295;DHT22;16305;48.566;8.846;2022-09-01T15:49:59;25.80;99.90
29295;DHT22;16305;48.566;8.846;2022-09-01T15:52:25;26.60;99.90
29295;DHT22;16305;48.566;8.846;2022-09-01T15:54:52;27.10;99.90
29295;DHT22;16305;48.566;8.846;2022-09-01T15:57:17;27.40;99.90
29295;DHT22;16305;48.566;8.846;2022-09-01T15:59:43;27.50;99.90
29295;DHT22;16305;48.566;8.846;2022-09-01T16:02:09;27.60;99.90
29295;DHT22;16305;48.566;8.846;2022-09-01T16:04:35;27.60;99.90
29295;DHT22;16305;48.566;8.846;2022-09-01T16:07:02;27.70;99.90
29295;DHT22;16305;48.566;8.846;2022-09-01T16:09:27;27.60;99.90
29295;DHT22;16305;48.566;8.846;2022-09-01T16:11:53;27.90;99.90
29295;DHT22;16305;48.566;8.846;2022-09-01T16:14:19;27.70;99.90
29295;DHT22;16305;48.566;8.846;2022-09-01T16:17:09;27.90;99.90
29295;DHT22;16305;48.566;8.846;2022-09-01T16:22:15;28.40;99.90
29295;DHT22;16305;48.566;8.846;2022-09-01T16:24:45;28.50;99.90
29295;DHT22;16305;48.566;8.846;2022-09-01T16:27:15;28.20;99.90
29295;DHT22;16305;48.566;8.846;2022-09-01T16:32:09;27.40;99.90
29295;DHT22;16305;48.566;8.846;2022-09-01T16:34:36;27.20;99.90
29295;DHT22;16305;48.566;8.846;2022-09-01T16:45:10;27.40;99.90
29295;DHT22;16305;48.566;8.846;2022-09-01T16:48:05;27.50;99.90
29295;DHT22;16305;48.566;8.846;2022-09-01T16:51:54;27.50;99.90
29295;DHT22;16305;48.566;8.846;2022-09-01T16:56:44;27.30;99.90